ADDS METAR Data INFO
IDs: Format: Raw Decoded Include TAF

Data at: 0308 UTC 16 Aug 2018

PACV 160253Z 06005KT 10SM FEW025 SCT047 BKN070 13/08 A3003 RMK AO2 SLP168 T01280078 58006
PACV 160153Z 06005KT 10SM FEW025 SCT045 BKN065 13/09 A3003 RMK AO2 SLP170 T01280089
PACV 160053Z 05007KT 10SM FEW025 SCT050 BKN080 13/08 A3004 RMK AO2 SLP173 T01280083
PACV 152353Z 10003KT 10SM FEW038 OVC060 14/11 A3004 RMK AO2 RAB2258E12 SLP174 P0001 60003 T01440106 10144 20100 50001
PACV 152343Z 09004KT 10SM FEW027 FEW038 OVC055 13/10 A3004 RMK AO2 RAB2258E12 P0001 T01330100
PACV 152314Z 06004KT 10SM FEW016 BKN027 OVC055 13/11 A3005 RMK AO2 RAB2258E12 P0001 T01280106
PACV 152253Z 08005KT 10SM FEW016 SCT022 BKN055 13/10 A3005 RMK AO2 RAB11E28 SLP175 P0000 T01330100
PACV 152153Z 07006KT 10SM FEW019 OVC060 13/11 A3004 RMK AO2 SLP174 T01280106
PACV 152119Z 07006KT 10SM SCT017 OVC070 12/11 A3004 RMK AO2 T01220106
PACV 152053Z 07004KT 10SM SCT018 BKN023 OVC060 12/11 A3004 RMK AO2 SLP173 60002 T01170106 51013
PACV 152015Z 08005KT 10SM SCT010 BKN016 OVC041 11/11 A3003 RMK AO2 T01110106
PACV 151955Z 10004KT 10SM BKN008 OVC016 11/11 A3003 RMK AO2 CIG 006V013 T01060106
PACV 151953Z 09003KT 10SM SCT008 SCT014 OVC021 11/11 A3003 RMK AO2 RAB00E44 SLP170 P0002 T01060106
PACV 151945Z 00000KT 10SM SCT008 SCT014 OVC021 11/11 A3003 RMK AO2 RAB00E44 P0002 T01060106
PACV 151919Z 08004KT 3SM R27/6000VP6000FT -RA BR BKN014 BKN020 OVC030 10/10 A3002 RMK AO2 RAB00 P0002 T01000100
PACV 151853Z 07006KT 10SM SCT017 BKN024 OVC046 10/10 A3001 RMK AO2 RAB28E45 SLP164 P0000 T01000100
PACV 151842Z 07005KT 4SM R27/5500VP6000FT -RA BR FEW013 BKN021 OVC036 10/10 A3001 RMK AO2 RAB28 P0000 T01000100
PACV 151839Z 08005KT 2 1/2SM R27/5500VP6000FT -RA BR FEW002 SCT016 OVC041 10/10 A3001 RMK AO2 RAB28 P0000 T01000100
PACV 151828Z 09005KT 7SM -RA FEW002 SCT016 OVC041 11/10 A3001 RMK AO2 RAB28 P0000 T01060100
PACV 151753Z 06005KT 10SM FEW002 OVC015 11/11 A3000 RMK AO2 RAE34 SLP160 P0001 60004 T01060106 10106 20094 53007
PACV 151653Z VRB04KT 3SM R27/6000VP6000FT -RA BR FEW007 BKN022 OVC029 10/10 A2999 RMK AO2 RAE14B34 SLP157 P0001 T01000100
PACV 151617Z 05003KT 4SM BR FEW007 OVC016 09/09 A2999 RMK AO2 RAE14 P0000 T00940094
PACV 151605Z 06003KT 3SM -RA BR OVC016 09/09 A2998 RMK AO2 P0000 T00940094
PACV 151553Z 00000KT 2 1/2SM -RA BR BKN016 OVC021 09/09 A2998 RMK AO2 RAB28 SLP153 P0002 T00940094
PACV 151551Z 00000KT 2SM -RA BR BKN016 OVC021 09/09 A2998 RMK AO2 RAB28 P0002
PACV 151534Z 00000KT 1 3/4SM -RA BR OVC016 09/09 A2998 RMK AO2 RAB28 P0001 T00940094
PACV 151509Z 00000KT 10SM BKN018 BKN024 OVC033 10/10 A2997 RMK AO2 T01000100
PACV 151453Z 09004KT 10SM SCT020 OVC031 10/10 A2997 RMK AO2 RAB13E29 SLP149 P0000 60000 T01000100 53006
PACV 151353Z 00000KT 10SM FEW011 SCT017 OVC028 09/09 A2996 RMK AO2 SLP145 T00940094
PACV 151253Z 00000KT 10SM OVC019 10/10 A2995 RMK AO2 SLP143 T01000100
PACV 151153Z 00000KT 10SM BKN019 BKN026 OVC030 09/09 A2995 RMK AO2 SLP143 60004 70051 T00940094 10100 20094 51005
PACV 151053Z 00000KT 10SM BKN021 OVC040 09/09 A2995 RMK AO2 RAB09E27 SLP140 P0001 T00940094
PACV 150953Z 03003KT 8SM BKN017 OVC024 10/10 A2994 RMK AO2 RAE09B32E51 SLP140 P0001 T01000100
PACV 150853Z 00000KT 4SM -RA BR BKN011 OVC028 10/10 A2993 RMK AO2 RAB38 SLP137 P0001 60002 T01000100 401220094 53012
PACV 150753Z 00000KT 10SM BKN013 BKN022 OVC034 09/09 A2992 RMK AO2 RAB0658E24 SLP132 P0001 T00940094
PACV 150653Z 00000KT 10SM BKN013 BKN017 OVC043 09/09 A2991 RMK AO2 RAE11 SLP129 P0000 T00940094
PACV 150553Z 07003KT 4SM -RA BR OVC012 10/10 A2990 RMK AO2 RAB01 SLP125 P0000 60008 T01000100 10122 20100 53006
PACV 150453Z 06005KT 10SM BKN012 BKN022 OVC034 11/11 A2989 RMK AO2 RAE0357B37E46 SLP123 P0001 T01060106
PACV 150353Z 09005KT 6SM -RA BR BKN012 BKN022 OVC048 11/11 A2989 RMK AO2 RAB25 SLP121 P0000 T01060106
PACV 150253Z 08007KT 10SM SCT006 BKN012 OVC034 11/11 A2988 RMK AO2 RAB0155E47 SLP119 P0001 60007 T01110106 51004
PACV 150153Z 07005KT 10SM SCT006 BKN013 OVC055 11/11 A2988 RMK AO2 RAE51 SLP119 P0002 T01060106
PACV 150101Z 08004KT 5SM -RA BR SCT006 BKN013 OVC021 11/11 A2988 RMK AO2 P0000 T01110111
PACV 150053Z 07006KT 2 1/2SM R27/4000VP6000FT -RA BR SCT007 BKN013 OVC050 11/11 A2988 RMK AO2 RAB32 SLP117 P0004 T01110111
PACV 150043Z 10004KT 1 3/4SM R27/5500VP6000FT RA BR SCT007 BKN013 OVC050 11/11 A2987 RMK AO2 VIS 1V3 RAB32 P0003 T01110111
PACV 142356Z 11008KT 10SM FEW008 BKN013 OVC039 12/12 A2987 RMK AO2 T01220117
PACV 142353Z 11008KT 10SM SCT011 BKN018 OVC042 12/12 A2987 RMK AO2 RAB35E46 SLP115 P0000 60008 T01220117 10122 20100 51011
PACV 142330Z 11008G14KT 9SM SCT009 BKN016 OVC030 12/12 A2986 RMK AO2 T01220117
PACV 142323Z 11005KT 10SM SCT009 BKN013 OVC034 12/12 A2986 RMK AO2 T01220117
PACV 142253Z 11008KT 10SM BKN009 BKN015 OVC040 12/12 A2986 RMK AO2 SLP112 T01220117
PACV 142200Z 09008KT 10SM SCT009 BKN018 OVC050 12/12 A2985 RMK AO2 T01220117
PACV 142153Z 11007KT 10SM SCT009 BKN014 OVC050 12/12 A2985 RMK AO2 RAE30 SLP109 P0000 T01220117
PACV 142053Z 11007KT 9SM -RA SCT007 BKN013 OVC040 12/12 A2984 RMK AO2 SLP104 P0000 60008 T01170117 51013
PACV 141953Z 07005KT 10SM -RA SCT009 BKN013 OVC040 11/11 A2983 RMK AO2 SLP100 P0006 T01110106
PACV 141853Z 08005KT 10SM -RA SCT009 BKN013 OVC040 11/10 A2981 RMK AO2 SLP095 P0002 T01060100
PACV 141753Z 08004KT 10SM -RA SCT007 BKN013 OVC040 10/10 A2980 RMK AO2 SLP091 P0003 60031 T01000100 10106 20094 53006
PACV 141702Z 08005KT 3SM -RA BR SCT007 BKN015 OVC040 11/11 A2979 RMK AO2 P0001 T01060106
PACV 141653Z 08004KT 3SM -RA BR BKN007 BKN011 OVC039 10/10 A2979 RMK AO2 SLP088 P0009 T01000100
PACV 141639Z 06006KT 3SM -RA BR BKN009 BKN016 OVC027 10/10 A2979 RMK AO2 P0008 T01000100
PACV 141627Z 09006KT 3SM -RA BR SCT007 BKN014 OVC022 10/10 A2979 RMK AO2 P0007 T01000100
PACV 141622Z 08005KT 2 1/2SM RA BR FEW009 BKN022 OVC028 10/10 A2978 RMK AO2 P0006 T01000100
PACV 141553Z 07006KT 4SM -RA BR SCT006 BKN023 OVC031 09/09 A2978 RMK AO2 SLP085 P0010 T00940094
PACV 141544Z 07006KT 3SM -RA BR SCT006 BKN012 OVC030 09/09 A2978 RMK AO2 P0008 T00940094
PACV 141528Z 08004KT 2 1/2SM -RA BR BKN007 BKN014 OVC027 09/09 A2978 RMK AO2 P0005 T00940094
PACV 141520Z 10003KT 1 3/4SM +RA BR SCT007 BKN012 OVC027 09/09 A2978 RMK AO2 P0004 T00940094
PACV 141515Z 08003KT 2 1/2SM RA BR BKN012 BKN019 OVC060 09/09 A2978 RMK AO2 P0002 T00940094
PACV 141512Z 07004KT 4SM RA BR SCT012 BKN019 OVC060 09/09 A2977 RMK AO2 P0001 T00940094